createdAt,value
2018-05-12T00:00:03.991Z,67.00
2018-05-12T00:02:32.197Z,66.70
2018-05-12T00:05:00.431Z,66.70
2018-05-12T00:07:28.676Z,67.60
2018-05-12T00:09:57.656Z,67.40
2018-05-12T00:12:26.665Z,67.30
2018-05-12T00:14:56.510Z,67.20
2018-05-12T00:17:25.501Z,67.50
2018-05-12T00:19:54.480Z,68.00
2018-05-12T00:22:22.712Z,67.90
2018-05-12T00:24:50.978Z,67.30
2018-05-12T00:27:19.264Z,67.80
2018-05-12T00:29:48.277Z,68.40
2018-05-12T00:32:17.396Z,68.70
2018-05-12T00:34:46.388Z,68.70
2018-05-12T00:37:15.400Z,68.70
2018-05-12T00:39:44.414Z,68.70
2018-05-12T00:42:13.401Z,68.40
2018-05-12T00:44:42.401Z,67.70
2018-05-12T00:47:10.783Z,68.30
2018-05-12T00:49:39.050Z,69.10
2018-05-12T00:52:07.306Z,69.50
2018-05-12T00:54:35.590Z,69.10
2018-05-12T00:57:04.593Z,69.40
2018-05-12T00:59:34.394Z,68.80
2018-05-12T01:02:02.705Z,68.80
2018-05-12T01:04:31.682Z,68.20
2018-05-12T01:06:59.985Z,68.10
2018-05-12T01:09:28.993Z,68.20
2018-05-12T01:11:57.973Z,68.60
2018-05-12T01:14:26.180Z,68.60
2018-05-12T01:16:55.169Z,68.20
2018-05-12T01:19:24.889Z,68.60
2018-05-12T01:21:53.116Z,67.80
2018-05-12T01:24:22.124Z,67.80
2018-05-12T01:26:50.413Z,67.80
2018-05-12T01:29:19.549Z,68.40
2018-05-12T01:31:47.785Z,68.40
2018-05-12T01:34:16.090Z,68.70
2018-05-12T01:36:45.066Z,68.50
2018-05-12T01:39:13.276Z,68.50
2018-05-12T01:41:42.280Z,68.80
2018-05-12T01:44:10.505Z,68.70
2018-05-12T01:46:38.732Z,68.60
2018-05-12T01:49:06.955Z,69.30
2018-05-12T01:51:35.934Z,69.50
2018-05-12T01:54:04.249Z,69.50
2018-05-12T01:56:33.345Z,69.40
2018-05-12T01:59:01.526Z,69.40
2018-05-12T02:01:29.827Z,69.50
2018-05-12T02:03:58.128Z,69.50
2018-05-12T02:06:27.106Z,70.10
2018-05-12T02:08:55.349Z,70.10
2018-05-12T02:13:58.101Z,70.20
2018-05-12T02:16:26.328Z,70.60
2018-05-12T02:18:55.321Z,70.50
2018-05-12T02:21:24.296Z,69.70
2018-05-12T02:23:52.522Z,70.30
2018-05-12T02:26:21.533Z,70.90
2018-05-12T02:28:50.519Z,71.10
2018-05-12T02:31:18.817Z,71.00
2018-05-12T02:33:47.809Z,71.90
2018-05-12T02:36:16.033Z,71.50
2018-05-12T02:38:44.240Z,71.20
2018-05-12T02:41:12.468Z,71.00
2018-05-12T02:43:40.693Z,71.10
2018-05-12T02:46:09.784Z,71.10
2018-05-12T02:48:38.805Z,71.70
2018-05-12T02:51:07.785Z,72.30
2018-05-12T02:53:36.029Z,72.20
2018-05-12T02:56:04.274Z,72.20
2018-05-12T02:58:33.254Z,72.40
2018-05-12T03:01:01.474Z,72.30
2018-05-12T03:03:30.448Z,74.10
2018-05-12T03:05:58.668Z,73.20
2018-05-12T03:08:27.660Z,72.60
2018-05-12T03:10:55.861Z,72.60
2018-05-12T03:13:24.841Z,72.60
2018-05-12T03:15:53.061Z,72.60
2018-05-12T03:18:21.299Z,72.80
2018-05-12T03:20:49.526Z,73.00
2018-05-12T03:23:17.781Z,73.20
2018-05-12T03:25:45.944Z,73.10
2018-05-12T03:28:14.192Z,73.30
2018-05-12T03:30:43.185Z,73.70
2018-05-12T03:33:12.190Z,73.30
2018-05-12T03:35:40.421Z,73.30
2018-05-12T03:38:08.676Z,73.70
2018-05-12T03:40:37.688Z,73.70
2018-05-12T03:43:05.966Z,73.70
2018-05-12T03:45:35.085Z,73.60
2018-05-12T03:48:04.181Z,73.90
2018-05-12T03:50:32.468Z,73.90
2018-05-12T03:53:01.473Z,74.80
2018-05-12T03:55:29.681Z,74.40
2018-05-12T03:57:58.656Z,74.50
2018-05-12T04:00:26.869Z,74.60
2018-05-12T04:02:55.961Z,75.00
2018-05-12T04:05:37.669Z,75.00
2018-05-12T04:08:18.716Z,75.90
2018-05-12T04:13:43.411Z,75.20
2018-05-12T04:16:12.394Z,75.30
2018-05-12T04:18:40.610Z,75.20
2018-05-12T04:21:09.605Z,75.50
2018-05-12T04:23:38.585Z,75.70
2018-05-12T04:26:06.845Z,75.70
2018-05-12T04:28:35.125Z,75.80
2018-05-12T04:31:03.361Z,75.80
2018-05-12T04:33:31.573Z,75.70
2018-05-12T04:35:59.801Z,76.20
2018-05-12T04:38:28.021Z,76.20
2018-05-12T04:40:56.233Z,76.30
2018-05-12T04:43:25.257Z,77.00
2018-05-12T04:45:53.440Z,77.00
2018-05-12T04:48:21.643Z,76.90
2018-05-12T04:50:49.866Z,76.70
2018-05-12T04:53:18.077Z,76.30
2018-05-12T04:55:46.333Z,76.50
2018-05-12T04:58:14.561Z,76.70
2018-05-12T05:00:43.545Z,77.10
2018-05-12T05:03:11.768Z,77.00
2018-05-12T05:05:39.989Z,77.10
2018-05-12T05:08:08.327Z,77.90
2018-05-12T05:10:36.429Z,77.90
2018-05-12T05:13:04.653Z,77.50
2018-05-12T05:15:32.872Z,78.80
2018-05-12T05:18:01.081Z,77.50
2018-05-12T05:20:30.069Z,78.00
2018-05-12T05:22:58.279Z,78.00
2018-05-12T05:25:27.264Z,78.20
2018-05-12T05:27:55.484Z,78.10
2018-05-12T05:30:23.708Z,78.00
2018-05-12T05:32:51.914Z,78.20
2018-05-12T05:35:20.250Z,78.40
2018-05-12T05:37:48.400Z,78.00
2018-05-12T05:40:16.609Z,78.30
2018-05-12T05:42:45.606Z,78.60
2018-05-12T05:45:14.595Z,78.80
2018-05-12T05:47:42.816Z,78.70
2018-05-12T05:50:11.129Z,78.90
2018-05-12T05:52:39.277Z,78.10
2018-05-12T05:55:08.266Z,78.60
2018-05-12T05:57:36.493Z,78.50
2018-05-12T06:00:04.721Z,78.50
2018-05-12T06:02:32.941Z,78.70
2018-05-12T06:05:01.934Z,78.90
2018-05-12T06:07:30.154Z,78.50
2018-05-12T06:09:58.379Z,78.60
2018-05-12T06:12:26.586Z,78.70
2018-05-12T06:14:54.828Z,79.00
2018-05-12T06:17:23.062Z,79.20
2018-05-12T06:19:51.275Z,78.90
2018-05-12T06:22:20.268Z,79.70
2018-05-12T06:24:48.489Z,79.70
2018-05-12T06:27:16.717Z,78.90
2018-05-12T06:29:44.937Z,79.10
2018-05-12T06:32:13.965Z,79.70
2018-05-12T06:34:42.180Z,78.80
2018-05-12T06:37:10.422Z,78.60
2018-05-12T06:39:38.647Z,78.70
2018-05-12T06:42:06.857Z,78.00
2018-05-12T06:44:35.082Z,78.40
2018-05-12T06:47:03.306Z,78.10
2018-05-12T06:49:31.615Z,79.20
2018-05-12T06:52:00.574Z,79.00
2018-05-12T06:54:29.550Z,79.20
2018-05-12T06:56:57.790Z,79.20
2018-05-12T06:59:26.025Z,79.20
2018-05-12T07:01:55.156Z,79.00
2018-05-12T07:04:24.158Z,79.00
2018-05-12T07:06:52.385Z,78.90
2018-05-12T07:09:20.618Z,79.40
2018-05-12T07:11:48.832Z,78.80
2018-05-12T07:14:17.797Z,75.90
2018-05-12T07:16:46.014Z,75.80
2018-05-12T07:19:14.260Z,77.70
2018-05-12T07:21:42.511Z,78.00
2018-05-12T07:24:11.489Z,76.20
2018-05-12T07:26:39.815Z,76.20
2018-05-12T07:29:08.038Z,77.00
2018-05-12T07:31:37.045Z,77.00
2018-05-12T07:34:05.279Z,77.10
2018-05-12T07:36:34.272Z,75.30
2018-05-12T07:39:02.516Z,75.30
2018-05-12T07:41:31.473Z,77.00
2018-05-12T07:43:59.674Z,76.80
2018-05-12T07:46:28.651Z,75.30
2018-05-12T07:48:56.893Z,75.30
2018-05-12T07:51:25.170Z,75.80
2018-05-12T07:53:53.330Z,76.30
2018-05-12T07:56:22.323Z,73.80
2018-05-12T07:58:50.542Z,73.60
2018-05-12T08:01:18.754Z,74.60
2018-05-12T08:03:47.005Z,74.60
2018-05-12T08:06:16.084Z,74.00
2018-05-12T08:08:44.263Z,74.00
2018-05-12T08:11:12.485Z,73.60
2018-05-12T08:13:41.493Z,74.00
2018-05-12T08:16:10.553Z,73.00
2018-05-12T08:18:38.814Z,73.00
2018-05-12T08:21:07.053Z,74.20
2018-05-12T08:23:35.290Z,74.20
2018-05-12T08:26:03.558Z,74.10
2018-05-12T08:28:31.709Z,75.40
2018-05-12T08:30:59.954Z,71.90
2018-05-12T08:33:28.185Z,72.80
2018-05-12T08:35:56.390Z,71.60
2018-05-12T08:38:25.386Z,75.20
2018-05-12T08:40:55.121Z,71.40
2018-05-12T08:43:23.341Z,71.40
2018-05-12T08:45:51.612Z,73.20
2018-05-12T08:48:20.699Z,74.30
2018-05-12T08:50:48.904Z,74.30
2018-05-12T08:53:17.896Z,73.90
2018-05-12T08:55:46.193Z,73.80
2018-05-12T08:58:15.182Z,66.50
2018-05-12T09:00:44.910Z,68.40
2018-05-12T09:03:13.122Z,67.50
2018-05-12T09:05:42.118Z,67.60
2018-05-12T09:08:11.136Z,69.10
2018-05-12T09:10:40.189Z,68.00
2018-05-12T09:13:08.427Z,68.10
2018-05-12T09:15:37.446Z,67.50
2018-05-12T09:18:05.671Z,67.60
2018-05-12T09:20:33.876Z,68.90
2018-05-12T09:23:02.178Z,68.60
2018-05-12T09:25:31.214Z,70.80
2018-05-12T09:27:59.399Z,70.60
2018-05-12T09:30:27.656Z,70.30
2018-05-12T09:32:56.657Z,71.40
2018-05-12T09:35:24.897Z,70.60
2018-05-12T09:37:53.961Z,68.60
2018-05-12T09:40:22.959Z,68.00
2018-05-12T09:42:51.173Z,67.90
2018-05-12T09:45:20.197Z,65.70
2018-05-12T09:47:48.443Z,65.50
2018-05-12T09:50:16.654Z,65.70
2018-05-12T09:52:45.741Z,63.90
2018-05-12T09:55:13.989Z,63.80
2018-05-12T09:57:42.201Z,65.20
2018-05-12T10:00:10.463Z,62.50
2018-05-12T10:02:38.725Z,62.10
2018-05-12T10:05:06.971Z,61.60
2018-05-12T10:07:35.290Z,61.00
2018-05-12T10:10:04.266Z,60.60
2018-05-12T10:12:32.577Z,60.70
2018-05-12T10:15:01.570Z,61.70
2018-05-12T10:17:29.875Z,61.70
2018-05-12T10:19:58.860Z,59.30
2018-05-12T10:22:28.589Z,58.50
2018-05-12T10:24:56.798Z,58.40
2018-05-12T10:27:25.082Z,59.20
2018-05-12T10:29:54.113Z,60.10
2018-05-12T10:32:22.360Z,60.50
2018-05-12T10:34:50.530Z,62.20
2018-05-12T10:37:18.768Z,62.40
2018-05-12T10:39:47.041Z,61.00
2018-05-12T10:42:16.040Z,59.20
2018-05-12T10:44:45.111Z,60.00
2018-05-12T10:47:14.089Z,58.10
2018-05-12T10:49:42.336Z,57.90
2018-05-12T10:52:10.645Z,60.10
2018-05-12T10:54:39.648Z,61.30
2018-05-12T10:57:07.984Z,61.10
2018-05-12T10:59:36.218Z,62.20
2018-05-12T11:02:05.224Z,59.10
2018-05-12T11:04:33.442Z,59.10
2018-05-12T11:07:01.655Z,60.30
2018-05-12T11:09:29.869Z,59.00
2018-05-12T11:11:58.355Z,57.60
2018-05-12T11:14:26.541Z,59.00
2018-05-12T11:16:54.773Z,60.20
2018-05-12T11:19:23.000Z,64.70
2018-05-12T11:21:51.318Z,59.60
2018-05-12T11:24:19.581Z,59.10
2018-05-12T11:26:47.809Z,60.20
2018-05-12T11:29:16.794Z,56.60
2018-05-12T11:31:44.997Z,56.60
2018-05-12T11:34:14.084Z,65.70
2018-05-12T11:36:42.271Z,65.60
2018-05-12T11:39:10.515Z,62.80
2018-05-12T11:41:39.552Z,58.90
2018-05-12T11:44:07.859Z,58.90
2018-05-12T11:46:36.052Z,61.40
2018-05-12T11:49:04.265Z,58.90
2018-05-12T11:51:33.262Z,62.00
2018-05-12T11:54:03.010Z,60.60
2018-05-12T11:56:31.987Z,58.00
2018-05-12T11:59:00.962Z,58.50
2018-05-12T12:01:29.176Z,58.50
2018-05-12T12:03:57.411Z,55.20
2018-05-12T12:06:25.657Z,53.90
2018-05-12T12:08:53.863Z,56.10
2018-05-12T12:11:22.082Z,57.30
2018-05-12T12:13:50.293Z,56.00
2018-05-12T12:16:18.518Z,53.50
2018-05-12T12:18:46.761Z,56.60
2018-05-12T12:21:14.985Z,54.80
2018-05-12T12:23:43.989Z,55.80
2018-05-12T12:26:12.987Z,56.90
2018-05-12T12:28:41.261Z,56.90
2018-05-12T12:31:09.529Z,53.50
2018-05-12T12:33:37.793Z,55.20
2018-05-12T12:36:06.002Z,53.80
2018-05-12T12:38:34.222Z,55.10
2018-05-12T12:41:02.449Z,56.40
2018-05-12T12:43:30.721Z,59.00
2018-05-12T12:45:59.723Z,62.80
2018-05-12T12:48:28.709Z,65.70
2018-05-12T12:50:56.917Z,65.70
2018-05-12T12:53:25.905Z,64.60
2018-05-12T12:55:55.004Z,64.70
2018-05-12T12:58:23.375Z,60.10
2018-05-12T13:00:51.511Z,63.00
2018-05-12T13:03:20.531Z,61.20
2018-05-12T13:05:48.785Z,61.10
2018-05-12T13:08:17.045Z,63.40
2018-05-12T13:10:45.271Z,64.10
2018-05-12T13:13:14.375Z,57.00
2018-05-12T13:15:42.610Z,57.00
2018-05-12T13:18:10.825Z,63.40
2018-05-12T13:20:39.144Z,58.70
2018-05-12T13:23:08.186Z,60.70
2018-05-12T13:25:36.475Z,60.60
2018-05-12T13:28:04.705Z,57.30
2018-05-12T13:30:32.958Z,54.20
2018-05-12T13:33:01.197Z,53.90
2018-05-12T13:35:29.412Z,54.00
2018-05-12T13:37:57.653Z,52.50
2018-05-12T13:40:25.920Z,54.50
2018-05-12T13:42:54.069Z,58.60
2018-05-12T13:45:22.273Z,57.00
2018-05-12T13:47:50.498Z,58.40
2018-05-12T13:50:18.720Z,55.70
2018-05-12T13:52:47.713Z,52.00
2018-05-12T13:55:16.747Z,49.40
2018-05-12T13:57:44.994Z,49.40
2018-05-12T14:00:13.230Z,51.00
2018-05-12T14:02:41.514Z,51.40
2018-05-12T14:05:09.833Z,50.10
2018-05-12T14:07:39.088Z,50.80
2018-05-12T14:10:07.469Z,50.60
2018-05-12T14:12:35.735Z,50.20
2018-05-12T14:15:03.941Z,50.30
2018-05-12T14:17:32.205Z,50.60
2018-05-12T14:20:00.421Z,50.60
2018-05-12T14:22:28.645Z,52.50
2018-05-12T14:24:57.637Z,52.50
2018-05-12T14:27:26.634Z,52.30
2018-05-12T14:29:55.625Z,55.60
2018-05-12T14:32:23.885Z,55.50
2018-05-12T14:34:52.113Z,55.10
2018-05-12T14:37:20.351Z,60.50
2018-05-12T14:39:48.594Z,58.50
2018-05-12T14:42:16.813Z,59.30
2018-05-12T14:44:45.056Z,55.40
2018-05-12T14:47:14.309Z,61.70
2018-05-12T14:49:42.569Z,58.60
2018-05-12T14:52:11.681Z,61.30
2018-05-12T14:54:41.127Z,67.00
2018-05-12T14:57:09.348Z,66.90
2018-05-12T14:59:38.459Z,60.30
2018-05-12T15:02:07.473Z,62.90
2018-05-12T15:04:37.317Z,56.10
2018-05-12T15:07:05.529Z,56.10
2018-05-12T15:09:33.819Z,55.20
2018-05-12T15:12:02.138Z,55.30
2018-05-12T15:14:30.399Z,53.80
2018-05-12T15:16:58.610Z,53.90
2018-05-12T15:19:26.833Z,54.20
2018-05-12T15:21:55.077Z,52.90
2018-05-12T15:24:23.338Z,53.90
2018-05-12T15:26:52.330Z,54.90
2018-05-12T15:29:20.533Z,54.80
2018-05-12T15:31:49.521Z,58.70
2018-05-12T15:34:17.873Z,58.50
2018-05-12T15:36:46.225Z,55.10
2018-05-12T15:39:15.236Z,54.40
2018-05-12T15:41:44.265Z,54.00
2018-05-12T15:44:12.511Z,54.00
2018-05-12T15:46:40.728Z,52.40
2018-05-12T15:49:08.973Z,52.50
2018-05-12T15:51:37.362Z,53.90
2018-05-12T15:54:05.596Z,54.40
2018-05-12T15:56:33.820Z,53.50
2018-05-12T15:59:02.886Z,53.10
2018-05-12T16:01:31.148Z,59.30
2018-05-12T16:04:00.133Z,54.50
2018-05-12T16:06:28.385Z,54.40
2018-05-12T16:08:56.627Z,54.50
2018-05-12T16:11:24.863Z,55.70
2018-05-12T16:13:53.189Z,59.90
2018-05-12T16:16:21.394Z,64.90
2018-05-12T16:18:49.607Z,68.00
2018-05-12T16:21:17.812Z,70.10
2018-05-12T16:23:46.062Z,68.40
2018-05-12T16:26:15.029Z,71.80
2018-05-12T16:28:43.296Z,71.60
2018-05-12T16:31:11.628Z,72.20
2018-05-12T16:33:40.737Z,73.10
2018-05-12T16:36:09.053Z,73.10
2018-05-12T16:38:37.267Z,73.00
2018-05-12T16:41:05.511Z,72.50
2018-05-12T16:43:33.696Z,67.20
2018-05-12T16:46:02.714Z,73.70
2018-05-12T16:48:31.686Z,73.90
2018-05-12T16:51:00.057Z,73.90
2018-05-12T16:53:28.950Z,73.20
2018-05-12T16:55:57.151Z,73.20
2018-05-12T16:58:25.383Z,73.50
2018-05-12T17:00:54.383Z,74.40
2018-05-12T17:03:22.602Z,74.20
2018-05-12T17:05:50.846Z,73.90
2018-05-12T17:08:19.063Z,73.70
2018-05-12T17:10:48.045Z,73.40
2018-05-12T17:13:16.393Z,73.40
2018-05-12T17:15:44.523Z,73.20
2018-05-12T17:18:12.869Z,71.80
2018-05-12T17:20:41.106Z,72.70
2018-05-12T17:23:09.471Z,73.40
2018-05-12T17:25:38.406Z,73.80
2018-05-12T17:28:07.432Z,73.80
2018-05-12T17:30:38.294Z,73.70
2018-05-12T17:33:07.270Z,73.60
2018-05-12T17:35:35.544Z,74.60
2018-05-12T17:38:03.760Z,73.80
2018-05-12T17:40:32.750Z,73.40
2018-05-12T17:43:01.759Z,73.30
2018-05-12T17:45:30.756Z,73.50
2018-05-12T17:47:59.744Z,74.00
2018-05-12T17:50:27.973Z,73.60
2018-05-12T17:52:56.190Z,73.60
2018-05-12T17:55:24.417Z,73.30
2018-05-12T17:57:52.667Z,73.70
2018-05-12T18:00:20.873Z,74.10
2018-05-12T18:02:49.199Z,74.00
2018-05-12T18:05:19.579Z,73.50
2018-05-12T18:07:47.837Z,73.40
2018-05-12T18:10:18.312Z,74.00
2018-05-12T18:12:46.601Z,74.00
2018-05-12T18:15:14.903Z,74.10
2018-05-12T18:17:43.316Z,73.70
2018-05-12T18:20:11.589Z,74.00
2018-05-12T18:22:40.590Z,73.70
2018-05-12T18:25:08.959Z,73.70
2018-05-12T18:27:37.197Z,73.80
2018-05-12T18:30:05.436Z,73.70
2018-05-12T18:32:33.658Z,73.80
2018-05-12T18:35:01.870Z,74.20
2018-05-12T18:37:30.884Z,74.50
2018-05-12T18:39:59.873Z,74.60
2018-05-12T18:42:28.111Z,74.50
2018-05-12T18:44:56.335Z,74.10
2018-05-12T18:47:24.651Z,74.40
2018-05-12T18:49:53.645Z,70.60
2018-05-12T18:52:22.639Z,73.70
2018-05-12T18:54:50.872Z,73.70
2018-05-12T18:57:19.141Z,73.30
2018-05-12T18:59:48.137Z,73.90
2018-05-12T19:02:16.362Z,73.90
2018-05-12T19:04:44.588Z,73.90
2018-05-12T19:07:14.241Z,73.40
2018-05-12T19:09:43.227Z,74.00
2018-05-12T19:12:11.467Z,73.90
2018-05-12T19:14:40.220Z,73.70
2018-05-12T19:17:09.408Z,73.50
2018-05-12T19:19:37.604Z,73.50
2018-05-12T19:22:06.449Z,73.60
2018-05-12T19:24:35.437Z,73.70
2018-05-12T19:27:04.434Z,73.80
2018-05-12T19:29:32.645Z,73.80
2018-05-12T19:32:01.625Z,73.80
2018-05-12T19:34:30.029Z,73.70
2018-05-12T19:36:59.046Z,74.90
2018-05-12T19:39:28.009Z,74.20
2018-05-12T19:41:56.237Z,74.20
2018-05-12T19:44:25.312Z,72.20
2018-05-12T19:46:53.444Z,72.20
2018-05-12T19:49:21.671Z,74.20
2018-05-12T19:51:49.888Z,72.20
2018-05-12T19:54:18.110Z,74.10
2018-05-12T19:56:46.401Z,73.60
2018-05-12T19:59:15.321Z,75.00
2018-05-12T20:01:43.562Z,74.10
2018-05-12T20:04:11.797Z,74.00
2018-05-12T20:06:40.034Z,74.00
2018-05-12T20:09:08.284Z,73.90
2018-05-12T20:11:36.561Z,73.60
2018-05-12T20:14:04.781Z,73.70
2018-05-12T20:16:32.990Z,73.80
2018-05-12T20:19:01.249Z,73.80
2018-05-12T20:21:29.473Z,74.00
2018-05-12T20:23:58.553Z,73.90
2018-05-12T20:26:26.750Z,73.80
2018-05-12T20:28:54.961Z,73.40
2018-05-12T20:31:23.941Z,73.50
2018-05-12T20:33:52.169Z,73.40
2018-05-12T20:36:20.386Z,73.50
2018-05-12T20:38:48.638Z,71.90
2018-05-12T20:41:17.012Z,72.60
2018-05-12T20:43:45.570Z,73.50
2018-05-12T20:46:13.761Z,73.60
2018-05-12T20:48:42.027Z,73.60
2018-05-12T20:51:10.259Z,73.00
2018-05-12T20:53:38.508Z,73.30
2018-05-12T20:56:07.166Z,72.70
2018-05-12T20:58:36.157Z,73.20
2018-05-12T21:01:05.133Z,73.10
2018-05-12T21:03:33.373Z,73.10
2018-05-12T21:06:02.444Z,72.50
2018-05-12T21:08:30.649Z,72.30
2018-05-12T21:10:59.629Z,72.50
2018-05-12T21:13:27.888Z,72.50
2018-05-12T21:15:56.122Z,73.50
2018-05-12T21:18:24.356Z,72.80
2018-05-12T21:20:52.603Z,70.10
2018-05-12T21:23:20.809Z,73.10
2018-05-12T21:25:49.793Z,72.60
2018-05-12T21:28:18.018Z,72.60
2018-05-12T21:30:46.242Z,73.00
2018-05-12T21:33:14.562Z,70.20
2018-05-12T21:35:42.791Z,73.00
2018-05-12T21:38:11.142Z,72.80
2018-05-12T21:40:39.361Z,73.00
2018-05-12T21:43:07.641Z,72.70
2018-05-12T21:45:35.915Z,72.30
2018-05-12T21:48:04.089Z,72.50
2018-05-12T21:50:33.106Z,72.50
2018-05-12T21:53:01.291Z,72.30
2018-05-12T21:55:30.312Z,73.20
2018-05-12T21:57:58.633Z,73.20
2018-05-12T22:00:26.854Z,72.30
2018-05-12T22:02:55.065Z,69.60
2018-05-12T22:05:24.053Z,73.00
2018-05-12T22:07:52.335Z,72.90
2018-05-12T22:10:20.492Z,71.20
2018-05-12T22:12:48.713Z,72.60
2018-05-12T22:15:16.941Z,72.60
2018-05-12T22:17:45.165Z,72.80
2018-05-12T22:20:13.432Z,73.10
2018-05-12T22:22:41.664Z,72.50
2018-05-12T22:25:09.898Z,71.90
2018-05-12T22:27:38.965Z,73.30
2018-05-12T22:30:07.196Z,73.30
2018-05-12T22:32:35.428Z,73.40
2018-05-12T22:35:03.646Z,72.10
2018-05-12T22:37:32.620Z,71.90
2018-05-12T22:40:00.863Z,71.90
2018-05-12T22:42:29.124Z,73.30
2018-05-12T22:44:58.134Z,73.30
2018-05-12T22:47:27.117Z,72.30
2018-05-12T22:49:55.341Z,72.30
2018-05-12T22:52:23.549Z,73.10
2018-05-12T22:54:51.771Z,73.30
2018-05-12T22:57:19.998Z,73.60
2018-05-12T22:59:49.052Z,73.90
2018-05-12T23:02:17.988Z,71.90
2018-05-12T23:04:46.973Z,73.70
2018-05-12T23:07:15.196Z,73.70
2018-05-12T23:09:44.197Z,72.20
2018-05-12T23:12:13.181Z,72.90
2018-05-12T23:14:41.434Z,72.80
2018-05-12T23:17:09.738Z,72.90
2018-05-12T23:19:37.953Z,71.70
2018-05-12T23:22:06.186Z,73.60
2018-05-12T23:24:34.407Z,71.50
2018-05-12T23:27:02.645Z,72.50
2018-05-12T23:29:30.912Z,70.20
2018-05-12T23:31:59.943Z,72.30
2018-05-12T23:34:28.258Z,72.30
2018-05-12T23:36:56.497Z,73.00
2018-05-12T23:39:25.489Z,74.30
2018-05-12T23:41:53.716Z,73.30
2018-05-12T23:44:22.069Z,73.50
2018-05-12T23:46:50.296Z,71.00
2018-05-12T23:49:18.504Z,71.40
2018-05-12T23:51:46.877Z,73.40
2018-05-12T23:54:15.112Z,72.80
2018-05-12T23:56:43.351Z,70.70
2018-05-12T23:59:11.594Z,73.00
